sensor_id;sensor_type;location;lat;lon;timestamp;P1;durP1;ratioP1;P2;durP2;ratioP2
11614;SDS011;5863;52.832;4.758;2023-01-29T00:00:32;1.57;;;1.47;;
11614;SDS011;5863;52.832;4.758;2023-01-29T00:02:59;2.03;;;1.53;;
11614;SDS011;5863;52.832;4.758;2023-01-29T00:05:25;3.63;;;1.80;;
11614;SDS011;5863;52.832;4.758;2023-01-29T00:07:53;1.77;;;1.67;;
11614;SDS011;5863;52.832;4.758;2023-01-29T00:10:21;2.47;;;1.97;;
11614;SDS011;5863;52.832;4.758;2023-01-29T00:12:47;2.13;;;1.67;;
11614;SDS011;5863;52.832;4.758;2023-01-29T00:15:16;1.70;;;1.60;;
11614;SDS011;5863;52.832;4.758;2023-01-29T00:17:42;3.20;;;1.70;;
11614;SDS011;5863;52.832;4.758;2023-01-29T00:20:10;3.00;;;1.80;;
11614;SDS011;5863;52.832;4.758;2023-01-29T00:22:37;2.03;;;1.83;;
11614;SDS011;5863;52.832;4.758;2023-01-29T00:25:08;2.97;;;2.00;;
11614;SDS011;5863;52.832;4.758;2023-01-29T00:27:35;3.00;;;1.70;;
11614;SDS011;5863;52.832;4.758;2023-01-29T00:30:02;1.87;;;1.63;;
11614;SDS011;5863;52.832;4.758;2023-01-29T00:32:36;3.10;;;2.00;;
11614;SDS011;5863;52.832;4.758;2023-01-29T00:35:04;3.97;;;1.93;;
11614;SDS011;5863;52.832;4.758;2023-01-29T00:37:31;1.97;;;1.70;;
11614;SDS011;5863;52.832;4.758;2023-01-29T00:39:58;4.73;;;1.80;;
11614;SDS011;5863;52.832;4.758;2023-01-29T00:42:26;2.27;;;1.77;;
11614;SDS011;5863;52.832;4.758;2023-01-29T00:45:10;5.17;;;2.10;;
11614;SDS011;5863;52.832;4.758;2023-01-29T00:47:37;5.50;;;2.13;;
11614;SDS011;5863;52.832;4.758;2023-01-29T00:50:04;4.57;;;1.90;;
11614;SDS011;5863;52.832;4.758;2023-01-29T00:52:32;2.33;;;1.80;;
11614;SDS011;5863;52.832;4.758;2023-01-29T00:55:00;3.80;;;2.03;;
11614;SDS011;5863;52.832;4.758;2023-01-29T00:57:31;3.97;;;2.30;;
11614;SDS011;5863;52.832;4.758;2023-01-29T00:59:59;1.83;;;1.60;;
11614;SDS011;5863;52.832;4.758;2023-01-29T01:02:26;3.97;;;2.20;;
11614;SDS011;5863;52.832;4.758;2023-01-29T01:05:12;4.23;;;2.10;;
11614;SDS011;5863;52.832;4.758;2023-01-29T01:07:41;2.93;;;2.07;;
11614;SDS011;5863;52.832;4.758;2023-01-29T01:10:09;4.47;;;2.53;;
11614;SDS011;5863;52.832;4.758;2023-01-29T01:12:48;5.37;;;2.87;;
11614;SDS011;5863;52.832;4.758;2023-01-29T01:15:18;6.07;;;2.43;;
11614;SDS011;5863;52.832;4.758;2023-01-29T01:17:45;2.87;;;2.30;;
11614;SDS011;5863;52.832;4.758;2023-01-29T01:20:13;2.20;;;2.00;;
11614;SDS011;5863;52.832;4.758;2023-01-29T01:22:40;2.30;;;2.10;;
11614;SDS011;5863;52.832;4.758;2023-01-29T01:25:07;6.37;;;2.33;;
11614;SDS011;5863;52.832;4.758;2023-01-29T01:27:34;5.27;;;2.20;;
11614;SDS011;5863;52.832;4.758;2023-01-29T01:30:07;4.60;;;2.23;;
11614;SDS011;5863;52.832;4.758;2023-01-29T01:32:35;3.50;;;2.43;;
11614;SDS011;5863;52.832;4.758;2023-01-29T01:35:02;3.37;;;2.40;;
11614;SDS011;5863;52.832;4.758;2023-01-29T01:37:29;3.73;;;2.40;;
11614;SDS011;5863;52.832;4.758;2023-01-29T01:39:56;4.43;;;2.20;;
11614;SDS011;5863;52.832;4.758;2023-01-29T01:42:35;4.97;;;2.43;;
11614;SDS011;5863;52.832;4.758;2023-01-29T01:45:02;3.67;;;3.07;;
11614;SDS011;5863;52.832;4.758;2023-01-29T01:47:34;11.83;;;4.87;;
11614;SDS011;5863;52.832;4.758;2023-01-29T01:50:05;5.97;;;4.40;;
11614;SDS011;5863;52.832;4.758;2023-01-29T01:52:34;4.27;;;3.20;;
11614;SDS011;5863;52.832;4.758;2023-01-29T01:55:04;3.83;;;2.90;;
11614;SDS011;5863;52.832;4.758;2023-01-29T01:57:34;3.80;;;2.83;;
11614;SDS011;5863;52.832;4.758;2023-01-29T02:00:04;3.70;;;2.60;;
11614;SDS011;5863;52.832;4.758;2023-01-29T02:02:38;4.67;;;2.70;;
11614;SDS011;5863;52.832;4.758;2023-01-29T02:05:24;7.20;;;3.40;;
11614;SDS011;5863;52.832;4.758;2023-01-29T02:08:09;3.80;;;2.70;;
11614;SDS011;5863;52.832;4.758;2023-01-29T02:10:55;4.73;;;2.57;;
11614;SDS011;5863;52.832;4.758;2023-01-29T02:13:23;6.33;;;3.13;;
11614;SDS011;5863;52.832;4.758;2023-01-29T02:15:49;3.60;;;2.80;;
11614;SDS011;5863;52.832;4.758;2023-01-29T02:18:19;6.13;;;3.40;;
11614;SDS011;5863;52.832;4.758;2023-01-29T02:20:55;4.53;;;3.10;;
11614;SDS011;5863;52.832;4.758;2023-01-29T02:26:29;6.57;;;3.20;;
11614;SDS011;5863;52.832;4.758;2023-01-29T02:29:29;3.77;;;2.83;;
11614;SDS011;5863;52.832;4.758;2023-01-29T02:32:06;4.73;;;3.20;;
11614;SDS011;5863;52.832;4.758;2023-01-29T02:34:45;4.43;;;3.30;;
11614;SDS011;5863;52.832;4.758;2023-01-29T02:37:36;4.73;;;3.17;;
11614;SDS011;5863;52.832;4.758;2023-01-29T02:40:08;6.43;;;3.10;;
11614;SDS011;5863;52.832;4.758;2023-01-29T02:42:46;5.87;;;2.90;;
11614;SDS011;5863;52.832;4.758;2023-01-29T02:45:21;3.90;;;3.57;;
11614;SDS011;5863;52.832;4.758;2023-01-29T02:47:56;3.77;;;3.30;;
11614;SDS011;5863;52.832;4.758;2023-01-29T02:50:25;4.33;;;3.27;;
11614;SDS011;5863;52.832;4.758;2023-01-29T02:52:57;3.67;;;2.87;;
11614;SDS011;5863;52.832;4.758;2023-01-29T02:55:29;5.07;;;3.00;;
11614;SDS011;5863;52.832;4.758;2023-01-29T02:58:01;2.90;;;2.60;;
11614;SDS011;5863;52.832;4.758;2023-01-29T03:00:34;5.27;;;3.13;;
11614;SDS011;5863;52.832;4.758;2023-01-29T03:03:05;3.97;;;2.90;;
11614;SDS011;5863;52.832;4.758;2023-01-29T03:05:36;5.23;;;2.90;;
11614;SDS011;5863;52.832;4.758;2023-01-29T03:08:13;4.00;;;3.60;;
11614;SDS011;5863;52.832;4.758;2023-01-29T03:10:45;4.83;;;3.57;;
11614;SDS011;5863;52.832;4.758;2023-01-29T03:13:18;4.30;;;3.70;;
11614;SDS011;5863;52.832;4.758;2023-01-29T03:15:51;6.43;;;4.90;;
11614;SDS011;5863;52.832;4.758;2023-01-29T03:18:26;7.87;;;5.07;;
11614;SDS011;5863;52.832;4.758;2023-01-29T03:20:56;7.00;;;5.00;;
11614;SDS011;5863;52.832;4.758;2023-01-29T03:23:28;6.60;;;5.30;;
11614;SDS011;5863;52.832;4.758;2023-01-29T03:26:15;6.13;;;5.47;;
11614;SDS011;5863;52.832;4.758;2023-01-29T03:29:02;8.13;;;5.30;;
11614;SDS011;5863;52.832;4.758;2023-01-29T03:31:50;7.33;;;5.30;;
11614;SDS011;5863;52.832;4.758;2023-01-29T03:34:32;6.07;;;4.83;;
11614;SDS011;5863;52.832;4.758;2023-01-29T03:37:04;5.60;;;4.90;;
11614;SDS011;5863;52.832;4.758;2023-01-29T03:39:34;7.43;;;5.07;;
11614;SDS011;5863;52.832;4.758;2023-01-29T03:42:03;7.70;;;4.97;;
11614;SDS011;5863;52.832;4.758;2023-01-29T03:44:40;8.40;;;6.07;;
11614;SDS011;5863;52.832;4.758;2023-01-29T03:47:19;11.87;;;5.37;;
11614;SDS011;5863;52.832;4.758;2023-01-29T03:49:54;6.43;;;4.40;;
11614;SDS011;5863;52.832;4.758;2023-01-29T03:52:26;6.20;;;4.40;;
11614;SDS011;5863;52.832;4.758;2023-01-29T03:55:02;5.03;;;4.47;;
11614;SDS011;5863;52.832;4.758;2023-01-29T03:57:37;7.00;;;4.93;;
11614;SDS011;5863;52.832;4.758;2023-01-29T04:00:07;9.23;;;6.07;;
11614;SDS011;5863;52.832;4.758;2023-01-29T04:02:45;9.50;;;6.37;;
11614;SDS011;5863;52.832;4.758;2023-01-29T04:05:15;7.07;;;6.07;;
11614;SDS011;5863;52.832;4.758;2023-01-29T04:07:44;9.07;;;5.37;;
11614;SDS011;5863;52.832;4.758;2023-01-29T04:10:13;9.53;;;4.97;;
11614;SDS011;5863;52.832;4.758;2023-01-29T04:12:44;8.33;;;5.03;;
11614;SDS011;5863;52.832;4.758;2023-01-29T04:15:15;10.27;;;6.50;;
11614;SDS011;5863;52.832;4.758;2023-01-29T04:17:44;10.70;;;5.10;;
11614;SDS011;5863;52.832;4.758;2023-01-29T04:20:15;7.57;;;4.90;;
11614;SDS011;5863;52.832;4.758;2023-01-29T04:22:44;8.00;;;5.20;;
11614;SDS011;5863;52.832;4.758;2023-01-29T04:25:12;7.73;;;4.73;;
11614;SDS011;5863;52.832;4.758;2023-01-29T04:27:56;8.57;;;5.20;;
11614;SDS011;5863;52.832;4.758;2023-01-29T04:30:31;7.57;;;4.87;;
11614;SDS011;5863;52.832;4.758;2023-01-29T04:33:10;11.77;;;8.23;;
11614;SDS011;5863;52.832;4.758;2023-01-29T04:35:53;13.37;;;9.83;;
11614;SDS011;5863;52.832;4.758;2023-01-29T04:38:32;15.87;;;10.93;;
11614;SDS011;5863;52.832;4.758;2023-01-29T04:41:07;16.27;;;11.97;;
11614;SDS011;5863;52.832;4.758;2023-01-29T04:43:43;18.37;;;12.60;;
11614;SDS011;5863;52.832;4.758;2023-01-29T04:46:18;19.20;;;14.27;;
11614;SDS011;5863;52.832;4.758;2023-01-29T04:48:57;21.20;;;14.43;;
11614;SDS011;5863;52.832;4.758;2023-01-29T04:51:31;21.10;;;13.47;;
11614;SDS011;5863;52.832;4.758;2023-01-29T04:54:05;18.07;;;13.43;;
11614;SDS011;5863;52.832;4.758;2023-01-29T04:56:38;16.50;;;12.47;;
11614;SDS011;5863;52.832;4.758;2023-01-29T04:59:13;17.53;;;13.67;;
11614;SDS011;5863;52.832;4.758;2023-01-29T05:01:45;19.97;;;14.00;;
11614;SDS011;5863;52.832;4.758;2023-01-29T05:04:17;18.73;;;13.47;;
11614;SDS011;5863;52.832;4.758;2023-01-29T05:06:45;15.27;;;12.13;;
11614;SDS011;5863;52.832;4.758;2023-01-29T05:09:13;15.73;;;12.47;;
11614;SDS011;5863;52.832;4.758;2023-01-29T05:11:41;17.13;;;12.23;;
11614;SDS011;5863;52.832;4.758;2023-01-29T05:14:10;18.80;;;12.27;;
11614;SDS011;5863;52.832;4.758;2023-01-29T05:16:41;17.23;;;12.07;;
11614;SDS011;5863;52.832;4.758;2023-01-29T05:19:09;15.30;;;12.03;;
11614;SDS011;5863;52.832;4.758;2023-01-29T05:21:39;19.63;;;12.07;;
11614;SDS011;5863;52.832;4.758;2023-01-29T05:24:09;17.40;;;11.37;;
11614;SDS011;5863;52.832;4.758;2023-01-29T05:26:38;15.30;;;10.73;;
11614;SDS011;5863;52.832;4.758;2023-01-29T05:29:23;16.13;;;10.87;;
11614;SDS011;5863;52.832;4.758;2023-01-29T05:31:50;13.77;;;10.03;;
11614;SDS011;5863;52.832;4.758;2023-01-29T05:34:16;15.17;;;8.97;;
11614;SDS011;5863;52.832;4.758;2023-01-29T05:36:44;12.63;;;9.33;;
11614;SDS011;5863;52.832;4.758;2023-01-29T05:39:11;14.17;;;9.17;;
11614;SDS011;5863;52.832;4.758;2023-01-29T05:41:37;14.27;;;8.47;;
11614;SDS011;5863;52.832;4.758;2023-01-29T05:44:04;11.50;;;8.60;;
11614;SDS011;5863;52.832;4.758;2023-01-29T05:46:31;11.70;;;8.73;;
11614;SDS011;5863;52.832;4.758;2023-01-29T05:48:58;10.70;;;8.60;;
11614;SDS011;5863;52.832;4.758;2023-01-29T05:51:25;13.77;;;8.83;;
11614;SDS011;5863;52.832;4.758;2023-01-29T05:53:53;14.00;;;8.83;;
11614;SDS011;5863;52.832;4.758;2023-01-29T05:56:20;11.83;;;8.60;;
11614;SDS011;5863;52.832;4.758;2023-01-29T05:58:47;10.70;;;8.70;;
11614;SDS011;5863;52.832;4.758;2023-01-29T06:01:16;10.17;;;8.07;;
11614;SDS011;5863;52.832;4.758;2023-01-29T06:03:44;12.40;;;8.90;;
11614;SDS011;5863;52.832;4.758;2023-01-29T06:06:12;12.40;;;8.53;;
11614;SDS011;5863;52.832;4.758;2023-01-29T06:08:39;10.77;;;7.20;;
11614;SDS011;5863;52.832;4.758;2023-01-29T06:11:08;10.57;;;7.40;;
11614;SDS011;5863;52.832;4.758;2023-01-29T06:13:36;10.70;;;7.47;;
11614;SDS011;5863;52.832;4.758;2023-01-29T06:16:03;10.30;;;7.23;;
11614;SDS011;5863;52.832;4.758;2023-01-29T06:18:30;10.13;;;7.30;;
11614;SDS011;5863;52.832;4.758;2023-01-29T06:20:59;10.53;;;7.43;;
11614;SDS011;5863;52.832;4.758;2023-01-29T06:23:26;10.40;;;7.57;;
11614;SDS011;5863;52.832;4.758;2023-01-29T06:25:53;14.90;;;7.93;;
11614;SDS011;5863;52.832;4.758;2023-01-29T06:28:25;11.63;;;7.37;;
11614;SDS011;5863;52.832;4.758;2023-01-29T06:30:51;12.33;;;7.30;;
11614;SDS011;5863;52.832;4.758;2023-01-29T06:33:18;8.67;;;5.87;;
11614;SDS011;5863;52.832;4.758;2023-01-29T06:35:45;11.27;;;6.13;;
11614;SDS011;5863;52.832;4.758;2023-01-29T06:38:11;6.53;;;5.60;;
11614;SDS011;5863;52.832;4.758;2023-01-29T06:40:38;8.27;;;5.70;;
11614;SDS011;5863;52.832;4.758;2023-01-29T06:43:05;12.63;;;6.83;;
11614;SDS011;5863;52.832;4.758;2023-01-29T06:45:33;9.27;;;6.13;;
11614;SDS011;5863;52.832;4.758;2023-01-29T06:47:59;8.87;;;5.50;;
11614;SDS011;5863;52.832;4.758;2023-01-29T06:50:27;8.00;;;4.80;;
11614;SDS011;5863;52.832;4.758;2023-01-29T06:52:54;7.60;;;4.73;;
11614;SDS011;5863;52.832;4.758;2023-01-29T06:55:20;6.07;;;4.50;;
11614;SDS011;5863;52.832;4.758;2023-01-29T06:57:47;7.97;;;4.77;;
11614;SDS011;5863;52.832;4.758;2023-01-29T07:00:14;9.27;;;4.83;;
11614;SDS011;5863;52.832;4.758;2023-01-29T07:02:43;10.03;;;5.50;;
11614;SDS011;5863;52.832;4.758;2023-01-29T07:05:09;10.27;;;5.87;;
11614;SDS011;5863;52.832;4.758;2023-01-29T07:07:36;10.73;;;5.83;;
11614;SDS011;5863;52.832;4.758;2023-01-29T07:10:03;9.77;;;6.37;;
11614;SDS011;5863;52.832;4.758;2023-01-29T07:12:31;9.23;;;6.60;;
11614;SDS011;5863;52.832;4.758;2023-01-29T07:14:58;12.07;;;6.23;;
11614;SDS011;5863;52.832;4.758;2023-01-29T07:17:24;9.93;;;7.13;;
11614;SDS011;5863;52.832;4.758;2023-01-29T07:19:52;11.83;;;6.30;;
11614;SDS011;5863;52.832;4.758;2023-01-29T07:22:19;8.57;;;6.10;;
11614;SDS011;5863;52.832;4.758;2023-01-29T07:24:46;10.23;;;6.00;;
11614;SDS011;5863;52.832;4.758;2023-01-29T07:27:13;9.70;;;6.83;;
11614;SDS011;5863;52.832;4.758;2023-01-29T07:29:39;12.40;;;7.20;;
11614;SDS011;5863;52.832;4.758;2023-01-29T07:32:06;9.87;;;6.40;;
11614;SDS011;5863;52.832;4.758;2023-01-29T07:34:33;8.23;;;5.77;;
11614;SDS011;5863;52.832;4.758;2023-01-29T07:37:01;9.03;;;6.27;;
11614;SDS011;5863;52.832;4.758;2023-01-29T07:39:28;11.33;;;5.97;;
11614;SDS011;5863;52.832;4.758;2023-01-29T07:41:54;12.80;;;5.63;;
11614;SDS011;5863;52.832;4.758;2023-01-29T07:44:24;8.37;;;6.50;;
11614;SDS011;5863;52.832;4.758;2023-01-29T07:46:51;12.50;;;5.73;;
11614;SDS011;5863;52.832;4.758;2023-01-29T07:49:17;8.77;;;5.00;;
11614;SDS011;5863;52.832;4.758;2023-01-29T07:51:44;6.40;;;4.90;;
11614;SDS011;5863;52.832;4.758;2023-01-29T07:54:12;7.73;;;5.03;;
11614;SDS011;5863;52.832;4.758;2023-01-29T07:56:39;9.37;;;5.40;;
11614;SDS011;5863;52.832;4.758;2023-01-29T07:59:06;8.03;;;5.53;;
11614;SDS011;5863;52.832;4.758;2023-01-29T08:01:32;9.03;;;6.10;;
11614;SDS011;5863;52.832;4.758;2023-01-29T08:03:59;9.80;;;5.60;;
11614;SDS011;5863;52.832;4.758;2023-01-29T08:06:26;8.23;;;5.00;;
11614;SDS011;5863;52.832;4.758;2023-01-29T08:08:54;6.50;;;4.90;;
11614;SDS011;5863;52.832;4.758;2023-01-29T08:11:22;6.20;;;4.37;;
11614;SDS011;5863;52.832;4.758;2023-01-29T08:13:49;7.47;;;4.83;;
11614;SDS011;5863;52.832;4.758;2023-01-29T08:16:16;7.80;;;4.10;;
11614;SDS011;5863;52.832;4.758;2023-01-29T08:18:43;7.33;;;3.93;;
11614;SDS011;5863;52.832;4.758;2023-01-29T08:21:11;6.20;;;3.67;;
11614;SDS011;5863;52.832;4.758;2023-01-29T08:23:38;5.80;;;3.63;;
11614;SDS011;5863;52.832;4.758;2023-01-29T08:26:06;6.90;;;3.37;;
11614;SDS011;5863;52.832;4.758;2023-01-29T08:28:34;7.87;;;3.80;;
11614;SDS011;5863;52.832;4.758;2023-01-29T08:31:02;6.07;;;3.80;;
11614;SDS011;5863;52.832;4.758;2023-01-29T08:33:29;7.93;;;4.20;;
11614;SDS011;5863;52.832;4.758;2023-01-29T08:35:56;6.67;;;4.50;;
11614;SDS011;5863;52.832;4.758;2023-01-29T08:38:23;7.23;;;4.40;;
11614;SDS011;5863;52.832;4.758;2023-01-29T08:40:49;8.87;;;4.37;;
11614;SDS011;5863;52.832;4.758;2023-01-29T08:43:16;7.30;;;4.30;;
11614;SDS011;5863;52.832;4.758;2023-01-29T08:45:44;6.27;;;5.10;;
11614;SDS011;5863;52.832;4.758;2023-01-29T08:48:11;8.17;;;5.00;;
11614;SDS011;5863;52.832;4.758;2023-01-29T08:50:38;9.57;;;4.73;;
11614;SDS011;5863;52.832;4.758;2023-01-29T08:53:05;10.20;;;5.03;;
11614;SDS011;5863;52.832;4.758;2023-01-29T08:55:34;5.93;;;4.67;;
11614;SDS011;5863;52.832;4.758;2023-01-29T08:58:02;5.97;;;4.17;;
11614;SDS011;5863;52.832;4.758;2023-01-29T09:00:29;9.43;;;5.00;;
11614;SDS011;5863;52.832;4.758;2023-01-29T09:02:57;9.23;;;5.07;;
11614;SDS011;5863;52.832;4.758;2023-01-29T09:05:25;8.43;;;5.67;;
11614;SDS011;5863;52.832;4.758;2023-01-29T09:07:51;8.70;;;5.37;;
11614;SDS011;5863;52.832;4.758;2023-01-29T09:10:18;10.40;;;6.00;;
11614;SDS011;5863;52.832;4.758;2023-01-29T09:12:45;9.40;;;5.50;;
11614;SDS011;5863;52.832;4.758;2023-01-29T09:15:12;7.97;;;5.77;;
11614;SDS011;5863;52.832;4.758;2023-01-29T09:17:39;12.23;;;6.23;;
11614;SDS011;5863;52.832;4.758;2023-01-29T09:20:09;12.67;;;6.20;;
11614;SDS011;5863;52.832;4.758;2023-01-29T09:22:36;8.27;;;5.83;;
11614;SDS011;5863;52.832;4.758;2023-01-29T09:25:03;13.23;;;6.30;;
11614;SDS011;5863;52.832;4.758;2023-01-29T09:27:30;13.63;;;6.73;;
11614;SDS011;5863;52.832;4.758;2023-01-29T09:29:57;13.10;;;7.30;;
11614;SDS011;5863;52.832;4.758;2023-01-29T09:32:24;12.40;;;6.70;;
11614;SDS011;5863;52.832;4.758;2023-01-29T09:34:51;6.87;;;5.50;;
11614;SDS011;5863;52.832;4.758;2023-01-29T09:37:19;10.97;;;6.23;;
11614;SDS011;5863;52.832;4.758;2023-01-29T09:39:47;9.57;;;6.00;;
11614;SDS011;5863;52.832;4.758;2023-01-29T09:42:15;12.70;;;5.90;;
11614;SDS011;5863;52.832;4.758;2023-01-29T09:44:51;10.43;;;6.13;;
11614;SDS011;5863;52.832;4.758;2023-01-29T09:47:23;10.40;;;5.47;;
11614;SDS011;5863;52.832;4.758;2023-01-29T09:49:54;9.83;;;5.30;;
11614;SDS011;5863;52.832;4.758;2023-01-29T09:52:26;7.37;;;5.03;;
11614;SDS011;5863;52.832;4.758;2023-01-29T09:54:56;9.67;;;4.93;;
11614;SDS011;5863;52.832;4.758;2023-01-29T09:57:30;8.37;;;5.13;;
11614;SDS011;5863;52.832;4.758;2023-01-29T10:00:04;7.27;;;4.40;;
11614;SDS011;5863;52.832;4.758;2023-01-29T10:02:41;6.90;;;4.07;;
11614;SDS011;5863;52.832;4.758;2023-01-29T10:05:23;6.93;;;3.60;;
11614;SDS011;5863;52.832;4.758;2023-01-29T10:08:06;6.13;;;3.83;;
11614;SDS011;5863;52.832;4.758;2023-01-29T10:10:57;7.57;;;4.10;;
11614;SDS011;5863;52.832;4.758;2023-01-29T10:13:31;5.93;;;3.83;;
11614;SDS011;5863;52.832;4.758;2023-01-29T10:16:20;9.00;;;4.30;;
11614;SDS011;5863;52.832;4.758;2023-01-29T10:21:51;9.27;;;5.30;;
11614;SDS011;5863;52.832;4.758;2023-01-29T10:24:44;8.57;;;5.10;;
11614;SDS011;5863;52.832;4.758;2023-01-29T10:27:17;9.77;;;5.70;;
11614;SDS011;5863;52.832;4.758;2023-01-29T10:29:46;7.67;;;5.30;;
11614;SDS011;5863;52.832;4.758;2023-01-29T10:32:17;8.20;;;5.30;;
11614;SDS011;5863;52.832;4.758;2023-01-29T10:34:48;9.00;;;4.93;;
11614;SDS011;5863;52.832;4.758;2023-01-29T10:37:22;7.03;;;5.43;;
11614;SDS011;5863;52.832;4.758;2023-01-29T10:39:54;9.93;;;6.00;;
11614;SDS011;5863;52.832;4.758;2023-01-29T10:42:25;9.00;;;5.43;;
11614;SDS011;5863;52.832;4.758;2023-01-29T10:44:59;10.40;;;4.80;;
11614;SDS011;5863;52.832;4.758;2023-01-29T10:47:45;7.13;;;4.60;;
11614;SDS011;5863;52.832;4.758;2023-01-29T10:50:33;10.43;;;4.73;;
11614;SDS011;5863;52.832;4.758;2023-01-29T10:53:13;10.52;;;4.65;;
11614;SDS011;5863;52.832;4.758;2023-01-29T10:55:55;7.67;;;4.90;;
11614;SDS011;5863;52.832;4.758;2023-01-29T10:58:30;8.00;;;4.87;;
11614;SDS011;5863;52.832;4.758;2023-01-29T11:01:02;11.17;;;5.17;;
11614;SDS011;5863;52.832;4.758;2023-01-29T11:03:29;9.47;;;5.87;;
11614;SDS011;5863;52.832;4.758;2023-01-29T11:06:00;10.10;;;6.00;;
11614;SDS011;5863;52.832;4.758;2023-01-29T11:08:39;9.43;;;6.23;;
11614;SDS011;5863;52.832;4.758;2023-01-29T11:11:12;11.97;;;6.50;;
11614;SDS011;5863;52.832;4.758;2023-01-29T11:13:42;11.43;;;6.13;;
11614;SDS011;5863;52.832;4.758;2023-01-29T11:16:13;9.47;;;5.77;;
11614;SDS011;5863;52.832;4.758;2023-01-29T11:18:50;9.80;;;4.47;;
11614;SDS011;5863;52.832;4.758;2023-01-29T11:21:19;11.02;;;4.15;;
11614;SDS011;5863;52.832;4.758;2023-01-29T11:23:47;9.13;;;3.93;;
11614;SDS011;5863;52.832;4.758;2023-01-29T11:26:17;7.93;;;3.83;;
11614;SDS011;5863;52.832;4.758;2023-01-29T11:28:47;8.30;;;4.10;;
11614;SDS011;5863;52.832;4.758;2023-01-29T11:31:17;9.13;;;3.73;;
11614;SDS011;5863;52.832;4.758;2023-01-29T11:33:46;6.53;;;4.20;;
11614;SDS011;5863;52.832;4.758;2023-01-29T11:36:26;8.17;;;4.20;;
11614;SDS011;5863;52.832;4.758;2023-01-29T11:41:45;10.53;;;4.57;;
11614;SDS011;5863;52.832;4.758;2023-01-29T11:44:18;8.23;;;4.20;;
11614;SDS011;5863;52.832;4.758;2023-01-29T11:46:46;12.23;;;4.67;;
11614;SDS011;5863;52.832;4.758;2023-01-29T11:49:22;8.33;;;4.57;;
11614;SDS011;5863;52.832;4.758;2023-01-29T11:51:58;7.03;;;3.87;;
11614;SDS011;5863;52.832;4.758;2023-01-29T11:54:29;10.77;;;4.43;;
11614;SDS011;5863;52.832;4.758;2023-01-29T11:57:00;11.73;;;4.20;;
11614;SDS011;5863;52.832;4.758;2023-01-29T11:59:32;8.17;;;4.03;;
11614;SDS011;5863;52.832;4.758;2023-01-29T12:02:11;9.27;;;4.20;;
11614;SDS011;5863;52.832;4.758;2023-01-29T12:05:04;12.80;;;4.50;;
11614;SDS011;5863;52.832;4.758;2023-01-29T12:07:39;5.90;;;2.77;;
11614;SDS011;5863;52.832;4.758;2023-01-29T12:10:11;8.13;;;2.40;;
11614;SDS011;5863;52.832;4.758;2023-01-29T12:13:08;5.70;;;2.30;;
11614;SDS011;5863;52.832;4.758;2023-01-29T12:15:47;6.00;;;2.10;;
11614;SDS011;5863;52.832;4.758;2023-01-29T12:18:15;8.40;;;2.57;;
11614;SDS011;5863;52.832;4.758;2023-01-29T12:20:52;8.27;;;3.40;;
11614;SDS011;5863;52.832;4.758;2023-01-29T12:23:24;9.77;;;3.57;;
11614;SDS011;5863;52.832;4.758;2023-01-29T12:25:58;8.67;;;4.20;;
11614;SDS011;5863;52.832;4.758;2023-01-29T12:28:33;7.67;;;3.00;;
11614;SDS011;5863;52.832;4.758;2023-01-29T12:33:55;10.17;;;3.70;;
11614;SDS011;5863;52.832;4.758;2023-01-29T12:36:30;15.07;;;4.10;;
11614;SDS011;5863;52.832;4.758;2023-01-29T12:39:01;9.63;;;3.77;;
11614;SDS011;5863;52.832;4.758;2023-01-29T12:41:29;8.07;;;3.50;;
11614;SDS011;5863;52.832;4.758;2023-01-29T12:44:03;12.93;;;3.83;;
11614;SDS011;5863;52.832;4.758;2023-01-29T12:46:36;13.07;;;4.67;;
11614;SDS011;5863;52.832;4.758;2023-01-29T12:49:10;15.97;;;5.10;;
11614;SDS011;5863;52.832;4.758;2023-01-29T12:51:41;15.00;;;5.80;;
11614;SDS011;5863;52.832;4.758;2023-01-29T12:54:18;13.03;;;5.07;;
11614;SDS011;5863;52.832;4.758;2023-01-29T12:56:48;13.60;;;5.18;;
11614;SDS011;5863;52.832;4.758;2023-01-29T12:59:25;11.83;;;5.40;;
11614;SDS011;5863;52.832;4.758;2023-01-29T13:01:57;10.83;;;5.70;;
11614;SDS011;5863;52.832;4.758;2023-01-29T13:04:31;16.47;;;5.73;;
11614;SDS011;5863;52.832;4.758;2023-01-29T13:07:12;15.33;;;6.20;;
11614;SDS011;5863;52.832;4.758;2023-01-29T13:09:44;17.35;;;6.18;;
11614;SDS011;5863;52.832;4.758;2023-01-29T13:12:15;10.97;;;5.57;;
11614;SDS011;5863;52.832;4.758;2023-01-29T13:14:52;14.07;;;5.50;;
11614;SDS011;5863;52.832;4.758;2023-01-29T13:17:23;24.83;;;6.20;;
11614;SDS011;5863;52.832;4.758;2023-01-29T13:19:56;15.87;;;5.70;;
11614;SDS011;5863;52.832;4.758;2023-01-29T13:22:27;14.43;;;5.03;;
11614;SDS011;5863;52.832;4.758;2023-01-29T13:24:58;12.90;;;4.78;;
11614;SDS011;5863;52.832;4.758;2023-01-29T13:27:27;15.13;;;5.77;;
11614;SDS011;5863;52.832;4.758;2023-01-29T13:30:04;15.33;;;5.40;;
11614;SDS011;5863;52.832;4.758;2023-01-29T13:32:31;13.93;;;5.77;;
11614;SDS011;5863;52.832;4.758;2023-01-29T13:35:01;15.13;;;5.70;;
11614;SDS011;5863;52.832;4.758;2023-01-29T13:37:32;15.37;;;5.73;;
11614;SDS011;5863;52.832;4.758;2023-01-29T13:40:02;13.10;;;5.20;;
11614;SDS011;5863;52.832;4.758;2023-01-29T13:42:36;13.33;;;4.97;;
11614;SDS011;5863;52.832;4.758;2023-01-29T13:45:16;11.90;;;4.80;;
11614;SDS011;5863;52.832;4.758;2023-01-29T13:47:46;16.13;;;4.90;;
11614;SDS011;5863;52.832;4.758;2023-01-29T13:50:17;18.00;;;5.43;;
11614;SDS011;5863;52.832;4.758;2023-01-29T13:52:51;14.00;;;5.67;;
11614;SDS011;5863;52.832;4.758;2023-01-29T13:55:21;15.10;;;5.10;;
11614;SDS011;5863;52.832;4.758;2023-01-29T13:57:55;15.03;;;4.93;;
11614;SDS011;5863;52.832;4.758;2023-01-29T14:03:41;11.10;;;4.77;;
11614;SDS011;5863;52.832;4.758;2023-01-29T14:06:09;12.33;;;4.30;;
11614;SDS011;5863;52.832;4.758;2023-01-29T14:08:36;14.73;;;5.37;;
11614;SDS011;5863;52.832;4.758;2023-01-29T14:13:59;14.07;;;4.87;;
11614;SDS011;5863;52.832;4.758;2023-01-29T14:16:34;13.40;;;4.90;;
11614;SDS011;5863;52.832;4.758;2023-01-29T14:19:02;17.23;;;5.60;;
11614;SDS011;5863;52.832;4.758;2023-01-29T14:21:30;15.20;;;5.40;;
11614;SDS011;5863;52.832;4.758;2023-01-29T14:23:58;14.93;;;5.20;;
11614;SDS011;5863;52.832;4.758;2023-01-29T14:26:40;11.90;;;5.00;;
11614;SDS011;5863;52.832;4.758;2023-01-29T14:29:16;17.67;;;4.73;;
11614;SDS011;5863;52.832;4.758;2023-01-29T14:31:46;16.13;;;5.70;;
11614;SDS011;5863;52.832;4.758;2023-01-29T14:34:19;16.33;;;5.57;;
11614;SDS011;5863;52.832;4.758;2023-01-29T14:36:49;13.07;;;5.97;;
11614;SDS011;5863;52.832;4.758;2023-01-29T14:39:27;18.47;;;6.17;;
11614;SDS011;5863;52.832;4.758;2023-01-29T14:41:59;13.50;;;5.17;;
11614;SDS011;5863;52.832;4.758;2023-01-29T14:47:52;15.18;;;5.07;;
11614;SDS011;5863;52.832;4.758;2023-01-29T14:50:38;17.63;;;5.10;;
11614;SDS011;5863;52.832;4.758;2023-01-29T14:53:13;14.93;;;5.67;;
11614;SDS011;5863;52.832;4.758;2023-01-29T14:55:47;20.13;;;5.10;;
11614;SDS011;5863;52.832;4.758;2023-01-29T14:58:18;16.23;;;5.47;;
11614;SDS011;5863;52.832;4.758;2023-01-29T15:00:53;16.50;;;5.50;;
11614;SDS011;5863;52.832;4.758;2023-01-29T15:03:26;12.33;;;5.33;;
11614;SDS011;5863;52.832;4.758;2023-01-29T15:06:00;14.33;;;5.40;;
11614;SDS011;5863;52.832;4.758;2023-01-29T15:08:31;18.40;;;5.30;;
11614;SDS011;5863;52.832;4.758;2023-01-29T15:11:06;15.25;;;5.00;;
11614;SDS011;5863;52.832;4.758;2023-01-29T15:14:00;22.57;;;5.63;;
11614;SDS011;5863;52.832;4.758;2023-01-29T15:16:38;16.75;;;5.38;;
11614;SDS011;5863;52.832;4.758;2023-01-29T15:19:12;12.15;;;4.82;;
11614;SDS011;5863;52.832;4.758;2023-01-29T15:24:29;10.53;;;4.67;;
11614;SDS011;5863;52.832;4.758;2023-01-29T15:26:56;17.37;;;5.53;;
11614;SDS011;5863;52.832;4.758;2023-01-29T15:29:23;17.67;;;5.30;;
11614;SDS011;5863;52.832;4.758;2023-01-29T15:31:52;21.10;;;5.77;;
11614;SDS011;5863;52.832;4.758;2023-01-29T15:34:20;20.67;;;6.03;;
11614;SDS011;5863;52.832;4.758;2023-01-29T15:36:48;11.67;;;5.27;;
11614;SDS011;5863;52.832;4.758;2023-01-29T15:39:15;16.83;;;5.30;;
11614;SDS011;5863;52.832;4.758;2023-01-29T15:41:45;17.73;;;5.37;;
11614;SDS011;5863;52.832;4.758;2023-01-29T15:44:13;18.30;;;6.30;;